Time;durP1;ratioP1;P1;durP2;ratioP2;P2;SDS_P1;SDS_P2;PMS_P1;PMS_P2;Temp;Humidity;BMP_temperature;BMP_pressure;BME280_temperature;BME280_humidity;BME280_pressure;Samples;Min_cycle;Max_cycle;Signal;HPM_P1;HPM_P2
2023/04/18 00:00:25;;;;;;;7.93;5.93;;;22.00;45.40;;;;;;5019760;28;20468;-77
2023/04/18 00:02:53;;;;;;;7.87;5.40;;;22.00;45.60;;;;;;5021399;28;20447;-78
2023/04/18 00:05:22;;;;;;;5.20;4.80;;;22.00;45.50;;;;;;5026114;28;20456;-78
2023/04/18 00:07:51;;;;;;;7.80;5.30;;;21.90;45.70;;;;;;5016758;28;20467;-78
2023/04/18 00:10:19;;;;;;;6.33;5.73;;;21.90;45.70;;;;;;5029992;28;20483;-78
2023/04/18 00:12:47;;;;;;;7.63;5.70;;;21.90;45.60;;;;;;5026834;28;20468;-78
2023/04/18 00:15:17;;;;;;;7.73;6.00;;;21.90;45.70;;;;;;5030811;28;20475;-78
2023/04/18 00:17:46;;;;;;;16.57;6.47;;;21.90;45.60;;;;;;5030498;28;20457;-78
2023/04/18 00:20:15;;;;;;;8.93;6.10;;;21.80;45.50;;;;;;5029494;28;20463;-79
2023/04/18 00:22:45;;;;;;;6.47;5.33;;;21.80;45.80;;;;;;5026230;28;20525;-78
2023/04/18 00:25:13;;;;;;;6.07;5.40;;;21.80;45.90;;;;;;5033788;28;20448;-78
2023/04/18 00:27:41;;;;;;;6.60;5.30;;;21.80;45.90;;;;;;5037023;28;20442;-79
2023/04/18 00:30:10;;;;;;;8.57;5.30;;;21.80;45.90;;;;;;5039691;28;20448;-79
2023/04/18 00:32:40;;;;;;;6.30;5.70;;;21.70;45.80;;;;;;5040417;28;20420;-79
2023/04/18 00:35:09;;;;;;;7.43;5.97;;;21.70;45.90;;;;;;5039187;28;20468;-79
2023/04/18 00:37:37;;;;;;;6.53;5.40;;;21.70;45.90;;;;;;5031606;28;20456;-78
2023/04/18 00:40:06;;;;;;;5.60;4.93;;;21.70;46.00;;;;;;5028992;28;20492;-79
2023/04/18 00:42:34;;;;;;;10.33;6.37;;;21.70;46.00;;;;;;5034250;28;20448;-78
2023/04/18 00:45:02;;;;;;;6.63;5.40;;;21.70;45.90;;;;;;5022769;28;20447;-79
2023/04/18 00:47:30;;;;;;;7.03;5.60;;;21.60;46.10;;;;;;5025588;28;21004;-78
2023/04/18 00:50:00;;;;;;;6.63;6.00;;;21.60;46.00;;;;;;5019573;28;20475;-78
2023/04/18 00:52:29;;;;;;;7.30;6.10;;;21.60;46.00;;;;;;5023225;28;20551;-78
2023/04/18 00:54:57;;;;;;;7.00;5.50;;;21.60;46.20;;;;;;5023288;28;20475;-78
2023/04/18 00:57:25;;;;;;;6.30;5.30;;;21.60;46.30;;;;;;5014607;28;20447;-79
2023/04/18 00:59:53;;;;;;;6.17;5.50;;;21.60;46.30;;;;;;5018439;28;20464;-78
2023/04/18 01:02:21;;;;;;;6.67;5.47;;;21.50;46.00;;;;;;5019464;28;20459;-79
2023/04/18 01:04:51;;;;;;;6.60;5.57;;;21.50;46.20;;;;;;5015906;28;20460;-79
2023/04/18 01:07:20;;;;;;;5.90;5.30;;;21.50;46.30;;;;;;5021530;28;20536;-79
2023/04/18 01:09:48;;;;;;;6.63;5.47;;;21.50;46.30;;;;;;5022080;28;20464;-78
2023/04/18 01:12:16;;;;;;;6.17;5.50;;;21.50;46.10;;;;;;5020718;28;20448;-79
2023/04/18 01:14:44;;;;;;;6.97;5.43;;;21.50;46.30;;;;;;5020015;28;20482;-78
2023/04/18 01:17:12;;;;;;;6.90;5.50;;;21.40;46.40;;;;;;5021285;28;20444;-78
2023/04/18 01:19:40;;;;;;;5.67;5.17;;;21.40;46.60;;;;;;5018214;28;20487;-78
2023/04/18 01:22:09;;;;;;;6.20;5.30;;;21.40;46.50;;;;;;5016201;28;20441;-78
2023/04/18 01:24:38;;;;;;;7.57;5.30;;;21.40;46.40;;;;;;5021035;28;20451;-79
2023/04/18 01:27:06;;;;;;;5.70;5.20;;;21.40;46.40;;;;;;5022210;28;20451;-79
2023/04/18 01:29:34;;;;;;;6.83;5.50;;;21.40;46.50;;;;;;5023298;28;20941;-78
2023/04/18 01:32:06;;;;;;;6.63;5.20;;;21.40;46.50;;;;;;5023364;28;20475;-78
2023/04/18 01:34:34;;;;;;;5.77;5.07;;;21.30;46.50;;;;;;5023405;28;20504;-78
2023/04/18 01:37:02;;;;;;;8.47;5.03;;;21.30;46.40;;;;;;5022577;28;20448;-78
2023/04/18 01:39:30;;;;;;;5.73;5.20;;;21.30;46.60;;;;;;5011776;28;20474;-78
2023/04/18 01:42:00;;;;;;;6.20;5.20;;;21.20;46.80;;;;;;5013968;28;20535;-78
2023/04/18 01:44:28;;;;;;;6.03;5.13;;;21.20;46.50;;;;;;5022181;28;20463;-78
2023/04/18 01:46:56;;;;;;;6.50;5.70;;;21.20;46.80;;;;;;5021143;28;20508;-78
2023/04/18 01:49:25;;;;;;;8.53;5.40;;;21.20;46.60;;;;;;5019470;28;20446;-78
2023/04/18 01:51:53;;;;;;;6.00;5.40;;;21.20;46.80;;;;;;5019962;28;20448;-78
2023/04/18 01:54:21;;;;;;;5.83;5.23;;;21.20;46.90;;;;;;5022518;28;20506;-79
2023/04/18 01:56:49;;;;;;;5.87;5.30;;;21.20;46.80;;;;;;5022100;28;20532;-78
2023/04/18 01:59:19;;;;;;;6.10;5.40;;;21.10;46.80;;;;;;5020575;28;20536;-78
2023/04/18 02:01:47;;;;;;;6.00;5.40;;;21.10;46.60;;;;;;5014525;28;20527;-78
2023/04/18 02:04:16;;;;;;;6.23;5.40;;;21.10;46.80;;;;;;5021662;28;20444;-78
2023/04/18 02:06:44;;;;;;;6.00;5.40;;;21.10;47.10;;;;;;5022858;28;20482;-78
2023/04/18 02:09:12;;;;;;;9.00;5.50;;;21.10;47.00;;;;;;5022244;28;20440;-79
2023/04/18 02:11:41;;;;;;;5.63;5.13;;;21.10;46.80;;;;;;5021950;28;20444;-78
2023/04/18 02:14:09;;;;;;;6.20;5.50;;;21.00;47.00;;;;;;5016518;28;20496;-79
2023/04/18 02:16:40;;;;;;;6.63;5.40;;;21.00;46.80;;;;;;5022203;28;20487;-78
2023/04/18 02:19:08;;;;;;;6.57;5.40;;;21.00;47.00;;;;;;5021906;28;20445;-78
2023/04/18 02:21:36;;;;;;;7.33;5.70;;;21.00;46.80;;;;;;5022119;28;20447;-78
2023/04/18 02:24:04;;;;;;;5.50;4.93;;;20.90;47.00;;;;;;5023817;28;20917;-78
2023/04/18 02:26:32;;;;;;;5.67;5.17;;;20.90;47.00;;;;;;5022414;28;20475;-79
2023/04/18 02:29:00;;;;;;;6.03;5.43;;;21.00;46.80;;;;;;5017946;28;20438;-78
2023/04/18 02:31:29;;;;;;;5.70;5.20;;;20.90;46.90;;;;;;5017102;28;20444;-78
2023/04/18 02:33:58;;;;;;;5.97;5.37;;;20.90;47.10;;;;;;5019060;28;20473;-78
2023/04/18 02:36:27;;;;;;;5.40;4.90;;;20.90;46.90;;;;;;5022180;28;20448;-78
2023/04/18 02:38:55;;;;;;;5.90;5.30;;;20.90;47.20;;;;;;5023974;28;20503;-79
2023/04/18 02:41:23;;;;;;;5.60;5.10;;;20.90;46.90;;;;;;5011571;28;20468;-78
2023/04/18 02:43:51;;;;;;;5.40;4.90;;;20.90;47.10;;;;;;5015611;28;20507;-78
2023/04/18 02:46:20;;;;;;;6.00;5.40;;;20.90;47.10;;;;;;5020016;28;20476;-78
2023/04/18 02:48:48;;;;;;;5.63;4.93;;;20.80;46.80;;;;;;5021300;28;20455;-78
2023/04/18 02:51:18;;;;;;;5.63;5.13;;;20.80;47.10;;;;;;5022964;28;20471;-78
2023/04/18 02:53:47;;;;;;;6.60;5.50;;;20.80;47.20;;;;;;5020404;28;20483;-78
2023/04/18 02:56:16;;;;;;;6.73;5.00;;;20.80;47.20;;;;;;5024850;28;20451;-79
2023/04/18 02:58:44;;;;;;;5.70;5.20;;;20.80;47.30;;;;;;5020223;28;20477;-78
2023/04/18 03:01:12;;;;;;;6.20;5.70;;;20.70;47.20;;;;;;5022677;28;20471;-78
2023/04/18 03:03:40;;;;;;;5.03;4.60;;;20.70;47.30;;;;;;5012513;28;20491;-78
2023/04/18 03:06:08;;;;;;;5.70;5.17;;;20.70;47.50;;;;;;5021163;28;20446;-78
2023/04/18 03:08:37;;;;;;;6.00;5.20;;;20.70;47.50;;;;;;5018775;28;20442;-79
2023/04/18 03:11:05;;;;;;;6.60;5.00;;;20.70;47.40;;;;;;5020669;28;20475;-78
2023/04/18 03:13:35;;;;;;;6.17;5.57;;;20.60;47.40;;;;;;5018994;28;20436;-78
2023/04/18 03:16:03;;;;;;;6.07;5.37;;;20.60;47.40;;;;;;5019863;28;20551;-78
2023/04/18 03:18:31;;;;;;;6.37;4.90;;;20.60;47.40;;;;;;5019787;28;20456;-78
2023/04/18 03:20:59;;;;;;;7.20;5.87;;;20.60;47.40;;;;;;5019621;28;20484;-78
2023/04/18 03:23:27;;;;;;;5.40;4.90;;;20.60;47.40;;;;;;5022144;28;20483;-79
2023/04/18 03:25:57;;;;;;;6.00;5.47;;;20.60;47.30;;;;;;5023083;28;20436;-79
2023/04/18 03:28:25;;;;;;;5.77;5.17;;;20.60;47.40;;;;;;5021574;28;20452;-78
2023/04/18 03:30:53;;;;;;;5.93;5.40;;;20.60;47.40;;;;;;5023043;28;20470;-77
2023/04/18 03:33:24;;;;;;;5.33;4.83;;;20.60;48.20;;;;;;5023370;28;20449;-78
2023/04/18 03:35:52;;;;;;;6.17;5.20;;;20.50;47.40;;;;;;5019985;28;20548;-78
2023/04/18 03:38:20;;;;;;;5.67;5.17;;;20.50;47.50;;;;;;5019967;28;20456;-79
2023/04/18 03:40:48;;;;;;;5.27;4.83;;;20.50;47.50;;;;;;5020630;28;20571;-79
2023/04/18 03:43:19;;;;;;;5.87;5.33;;;20.50;47.50;;;;;;5020175;28;20447;-78
2023/04/18 03:45:47;;;;;;;9.70;5.23;;;20.50;47.60;;;;;;5021345;28;20467;-79
2023/04/18 03:48:15;;;;;;;6.27;5.60;;;20.50;47.70;;;;;;5021029;28;20515;-78
2023/04/18 03:50:43;;;;;;;5.30;4.90;;;20.50;47.70;;;;;;5020593;28;20474;-78
2023/04/18 03:53:11;;;;;;;5.00;4.60;;;20.50;47.50;;;;;;5013050;28;20559;-78
2023/04/18 03:55:41;;;;;;;5.83;5.00;;;20.50;47.70;;;;;;5028659;28;20608;-79
2023/04/18 03:58:09;;;;;;;5.90;5.13;;;20.50;47.50;;;;;;5026721;28;20568;-78
2023/04/18 04:00:39;;;;;;;5.77;5.10;;;20.40;47.40;;;;;;4999314;28;20496;-78
2023/04/18 04:03:07;;;;;;;5.73;5.13;;;20.40;47.70;;;;;;5017585;28;20452;-78
2023/04/18 04:05:35;;;;;;;5.60;5.10;;;20.40;47.70;;;;;;5031882;28;20417;-78
2023/04/18 04:08:03;;;;;;;5.30;4.80;;;20.40;47.70;;;;;;5015918;28;20448;-78
2023/04/18 04:10:31;;;;;;;5.20;4.70;;;20.40;47.50;;;;;;5023747;28;20460;-78
2023/04/18 04:12:59;;;;;;;5.47;4.87;;;20.30;47.70;;;;;;5018282;28;20548;-78
2023/04/18 04:15:27;;;;;;;5.50;5.00;;;20.40;47.80;;;;;;5027177;28;20575;-78
2023/04/18 04:17:57;;;;;;;7.17;5.43;;;20.30;47.50;;;;;;5025412;28;20448;-78
2023/04/18 04:20:25;;;;;;;5.50;5.00;;;20.30;47.60;;;;;;5028720;28;20479;-79
2023/04/18 04:22:54;;;;;;;5.67;5.17;;;20.30;47.80;;;;;;5026587;28;20523;-79
2023/04/18 04:25:23;;;;;;;5.57;4.83;;;20.30;47.60;;;;;;5024620;28;20439;-79
2023/04/18 04:27:52;;;;;;;5.50;5.00;;;20.30;47.80;;;;;;5025724;28;20448;-78
2023/04/18 04:30:21;;;;;;;5.47;4.97;;;20.30;47.70;;;;;;5017545;28;20473;-80
2023/04/18 04:32:49;;;;;;;5.53;5.03;;;20.30;47.60;;;;;;5008185;28;20475;-78
2023/04/18 04:35:19;;;;;;;4.93;4.47;;;20.30;47.60;;;;;;5022194;28;20501;-78
2023/04/18 04:37:48;;;;;;;5.37;4.87;;;20.30;47.80;;;;;;5023079;28;20455;-78
2023/04/18 04:40:16;;;;;;;5.60;5.10;;;20.20;47.60;;;;;;5022387;28;20476;-78
2023/04/18 04:42:44;;;;;;;5.17;4.77;;;20.20;47.70;;;;;;5021543;28;20440;-78
2023/04/18 04:45:13;;;;;;;5.47;4.97;;;20.20;47.70;;;;;;5021162;28;20456;-78
2023/04/18 04:47:41;;;;;;;5.50;5.00;;;20.20;48.00;;;;;;5018630;28;20444;-78
2023/04/18 04:50:13;;;;;;;5.57;5.00;;;20.20;48.20;;;;;;5019059;28;20476;-78
2023/04/18 04:52:43;;;;;;;6.30;4.87;;;20.20;47.90;;;;;;5012021;28;20533;-78
2023/04/18 04:55:11;;;;;;;5.53;5.03;;;20.20;47.80;;;;;;5013268;28;20507;-78
2023/04/18 04:57:39;;;;;;;5.50;5.00;;;20.20;47.80;;;;;;5011686;28;20447;-78
2023/04/18 05:00:08;;;;;;;5.30;4.80;;;20.10;47.70;;;;;;5018193;28;20474;-78
2023/04/18 05:02:36;;;;;;;5.67;5.17;;;20.10;47.80;;;;;;5017797;28;20523;-78
2023/04/18 05:05:05;;;;;;;6.70;5.30;;;20.10;47.80;;;;;;5019046;28;20448;-78
2023/04/18 05:07:34;;;;;;;5.87;5.30;;;20.10;47.80;;;;;;5022237;28;20444;-77
2023/04/18 05:10:03;;;;;;;4.67;4.27;;;20.10;47.80;;;;;;5017779;28;20471;-78
2023/04/18 05:12:31;;;;;;;4.80;4.40;;;20.10;47.90;;;;;;5018762;28;20446;-77
2023/04/18 05:14:59;;;;;;;5.27;4.83;;;20.10;47.80;;;;;;5016112;28;20436;-78
2023/04/18 05:17:28;;;;;;;5.40;5.00;;;20.10;47.80;;;;;;5025189;28;20437;-78
2023/04/18 05:19:56;;;;;;;5.63;5.03;;;20.10;47.80;;;;;;5019287;28;20510;-78
2023/04/18 05:22:24;;;;;;;4.90;4.50;;;20.20;47.80;;;;;;5016206;28;20462;-78
2023/04/18 05:24:52;;;;;;;5.47;4.97;;;20.20;47.80;;;;;;5020061;28;20443;-78
2023/04/18 05:27:22;;;;;;;4.80;4.43;;;20.20;47.90;;;;;;5020656;28;20445;-78
2023/04/18 05:29:50;;;;;;;5.37;4.90;;;20.20;47.80;;;;;;5021777;28;20551;-78
2023/04/18 05:32:19;;;;;;;6.57;4.87;;;20.10;47.80;;;;;;5021786;28;20444;-78
2023/04/18 05:34:47;;;;;;;6.07;4.90;;;20.20;47.90;;;;;;5007630;28;20452;-78
2023/04/18 05:37:15;;;;;;;6.10;5.20;;;20.20;47.80;;;;;;5014235;28;20468;-77
2023/04/18 05:39:43;;;;;;;6.03;5.40;;;20.10;47.80;;;;;;5019553;28;20468;-78
2023/04/18 05:42:11;;;;;;;6.10;4.90;;;20.10;47.60;;;;;;5019579;28;20457;-77
2023/04/18 05:44:40;;;;;;;5.87;5.27;;;20.10;47.80;;;;;;5020250;28;20451;-77
2023/04/18 05:47:09;;;;;;;5.20;4.70;;;20.10;47.60;;;;;;5015737;28;20456;-77
2023/04/18 05:49:37;;;;;;;5.27;4.77;;;20.10;47.80;;;;;;5021764;28;20471;-79
2023/04/18 05:52:05;;;;;;;5.80;5.27;;;20.10;47.60;;;;;;5019827;28;20451;-77
2023/04/18 05:54:33;;;;;;;5.60;5.10;;;20.20;47.70;;;;;;5022245;28;20456;-77
2023/04/18 05:57:02;;;;;;;6.10;5.20;;;20.10;47.50;;;;;;5015697;28;20468;-77
2023/04/18 05:59:31;;;;;;;5.87;4.90;;;20.10;47.60;;;;;;5021056;28;20469;-78
2023/04/18 06:02:01;;;;;;;5.10;4.70;;;20.20;47.50;;;;;;5024387;28;20535;-78
2023/04/18 06:04:29;;;;;;;4.83;4.40;;;20.20;47.80;;;;;;5025016;28;20456;-78
2023/04/18 06:06:57;;;;;;;6.70;4.87;;;20.20;47.70;;;;;;5024444;28;20472;-77
2023/04/18 06:09:25;;;;;;;5.70;5.10;;;20.10;47.50;;;;;;5022154;28;20471;-78
2023/04/18 06:11:53;;;;;;;5.40;4.90;;;20.10;47.60;;;;;;5022306;28;20460;-78
2023/04/18 06:14:21;;;;;;;5.80;5.20;;;20.20;47.60;;;;;;5016947;28;20460;-77
2023/04/18 06:16:50;;;;;;;4.67;4.27;;;20.20;47.60;;;;;;5019878;28;20555;-79
2023/04/18 06:19:19;;;;;;;5.07;4.57;;;20.20;47.50;;;;;;5021256;28;20541;-78
2023/04/18 06:21:48;;;;;;;5.30;4.80;;;20.20;47.50;;;;;;5024016;28;20448;-78
2023/04/18 06:24:16;;;;;;;5.40;4.90;;;20.30;47.70;;;;;;5024086;28;20452;-78
2023/04/18 06:26:44;;;;;;;6.97;4.93;;;20.30;47.60;;;;;;5016469;28;20450;-79
2023/04/18 06:29:13;;;;;;;5.03;4.60;;;20.30;47.60;;;;;;5014598;28;20477;-79
2023/04/18 06:31:44;;;;;;;5.90;4.87;;;20.30;47.60;;;;;;5024574;28;20441;-78
2023/04/18 06:34:12;;;;;;;4.93;4.50;;;20.30;47.50;;;;;;5019614;28;20526;-78
2023/04/18 06:36:42;;;;;;;4.50;4.20;;;20.40;47.60;;;;;;5016073;28;20464;-79
2023/04/18 06:39:11;;;;;;;5.13;4.73;;;20.40;47.60;;;;;;5011822;28;20444;-79
2023/04/18 06:41:39;;;;;;;15.37;9.70;;;20.40;47.60;;;;;;5012856;28;20444;-78
2023/04/18 06:44:07;;;;;;;17.40;12.33;;;20.10;45.90;;;;;;5003221;28;20487;-80
2023/04/18 06:46:35;;;;;;;18.47;12.37;;;19.60;44.40;;;;;;5008931;28;20449;-78
2023/04/18 06:49:04;;;;;;;23.70;12.90;;;18.80;41.60;;;;;;5009254;28;20447;-76
2023/04/18 06:51:32;;;;;;;24.70;14.10;;;18.50;43.40;;;;;;5007506;28;20461;-76
2023/04/18 06:54:02;;;;;;;19.33;13.10;;;18.30;40.30;;;;;;5001674;28;20457;-77
2023/04/18 06:56:30;;;;;;;20.30;13.17;;;18.00;40.90;;;;;;5001735;28;20470;-75
2023/04/18 06:59:01;;;;;;;19.87;11.90;;;17.60;41.40;;;;;;5005779;28;20452;-77
2023/04/18 07:01:30;;;;;;;17.33;12.37;;;17.60;41.70;;;;;;5002779;28;20479;-77
2023/04/18 07:03:58;;;;;;;20.77;12.47;;;17.70;41.00;;;;;;5002981;28;20464;-75
2023/04/18 07:06:26;;;;;;;19.30;12.07;;;18.20;41.20;;;;;;5003231;28;20429;-78
2023/04/18 07:08:58;;;;;;;14.63;10.93;;;18.20;39.50;;;;;;4998292;28;20437;-77
2023/04/18 07:11:28;;;;;;;12.63;9.57;;;18.70;40.90;;;;;;4995437;28;20441;-79
2023/04/18 07:13:56;;;;;;;13.67;9.10;;;19.20;40.10;;;;;;5003679;28;20600;-78
2023/04/18 07:16:24;;;;;;;11.80;8.47;;;19.60;39.80;;;;;;5003309;28;20480;-78
2023/04/18 07:18:52;;;;;;;13.30;8.40;;;19.80;39.60;;;;;;5007385;28;20550;-79
2023/04/18 07:21:20;;;;;;;12.03;7.73;;;20.10;39.50;;;;;;5000015;28;21028;-78
2023/04/18 07:23:48;;;;;;;11.90;8.00;;;20.30;39.50;;;;;;4998780;28;20457;-79
2023/04/18 07:26:16;;;;;;;9.27;6.70;;;20.50;39.30;;;;;;5010366;28;20452;-78
2023/04/18 07:28:45;;;;;;;8.10;6.50;;;20.70;39.30;;;;;;5011182;28;20462;-78
2023/04/18 07:31:15;;;;;;;8.03;6.27;;;20.90;39.50;;;;;;5012385;28;20527;-78
2023/04/18 07:33:43;;;;;;;8.10;5.80;;;21.10;39.60;;;;;;5011879;28;20487;-79
2023/04/18 07:36:11;;;;;;;9.07;6.50;;;21.20;39.40;;;;;;5011147;28;20452;-79
2023/04/18 07:38:39;;;;;;;8.23;7.00;;;21.30;39.40;;;;;;5015978;28;20440;-79
2023/04/18 07:41:07;;;;;;;8.47;6.53;;;21.50;39.50;;;;;;5016021;28;20458;-79
2023/04/18 07:43:37;;;;;;;9.43;6.30;;;21.60;39.60;;;;;;5016438;28;20436;-79
2023/04/18 07:46:06;;;;;;;7.73;5.90;;;21.70;40.20;;;;;;5010010;28;20445;-79
2023/04/18 07:48:34;;;;;;;11.23;6.60;;;21.90;39.60;;;;;;5009027;28;20457;-80
2023/04/18 07:51:03;;;;;;;6.83;5.90;;;22.00;39.70;;;;;;5016070;28;20487;-78
2023/04/18 07:53:31;;;;;;;6.50;5.80;;;22.20;39.80;;;;;;5016189;28;20484;-79
2023/04/18 07:55:59;;;;;;;6.80;6.03;;;22.30;39.90;;;;;;5010366;28;20460;-79
2023/04/18 07:58:27;;;;;;;10.70;5.80;;;22.40;39.90;;;;;;5016364;28;20487;-79
2023/04/18 08:00:56;;;;;;;8.17;6.20;;;22.60;39.90;;;;;;5015652;28;20464;-79
2023/04/18 08:03:26;;;;;;;6.83;5.87;;;22.80;40.00;;;;;;5006665;28;20461;-80
2023/04/18 08:05:54;;;;;;;8.73;5.60;;;22.90;40.20;;;;;;5015617;28;20507;-78
2023/04/18 08:08:22;;;;;;;7.27;5.10;;;23.10;40.30;;;;;;5016886;28;20436;-79
2023/04/18 08:10:51;;;;;;;6.40;5.80;;;23.30;40.30;;;;;;5008535;28;20464;-79
2023/04/18 08:13:19;;;;;;;6.77;6.10;;;23.40;40.30;;;;;;5017047;28;20459;-78
2023/04/18 08:15:47;;;;;;;6.20;5.60;;;23.60;40.30;;;;;;5016264;28;20499;-79
2023/04/18 08:18:15;;;;;;;5.70;5.20;;;23.70;40.30;;;;;;5017142;28;20491;-79
2023/04/18 08:20:44;;;;;;;6.43;5.80;;;23.90;40.40;;;;;;5013263;28;20495;-79
2023/04/18 08:23:12;;;;;;;5.73;5.13;;;24.10;40.50;;;;;;5010973;28;20479;-79
2023/04/18 08:25:41;;;;;;;7.50;5.47;;;24.30;40.40;;;;;;5016412;28;20455;-79
2023/04/18 08:28:09;;;;;;;6.17;5.63;;;24.40;40.40;;;;;;5016849;28;20411;-78
2023/04/18 08:30:38;;;;;;;6.30;5.70;;;24.60;40.40;;;;;;5015867;28;20487;-79
2023/04/18 08:33:06;;;;;;;5.10;4.70;;;24.70;40.40;;;;;;5004619;28;20525;-79
2023/04/18 08:35:35;;;;;;;5.50;5.00;;;24.90;40.40;;;;;;5015456;28;20967;-78
2023/04/18 08:38:04;;;;;;;5.50;5.00;;;25.00;40.40;;;;;;5013400;28;20450;-79
2023/04/18 08:40:33;;;;;;;5.67;5.10;;;25.20;40.40;;;;;;5007562;28;20439;-80
2023/04/18 08:43:03;;;;;;;5.47;4.97;;;25.40;40.40;;;;;;5015481;28;20441;-79
2023/04/18 08:45:32;;;;;;;5.97;5.47;;;25.60;40.50;;;;;;5014661;28;20451;-78
2023/04/18 08:48:02;;;;;;;6.00;5.50;;;25.70;40.40;;;;;;5011480;28;20540;-79
2023/04/18 08:50:31;;;;;;;5.23;4.83;;;25.90;40.20;;;;;;5008842;28;20473;-80
2023/04/18 08:52:59;;;;;;;5.90;5.40;;;26.00;40.20;;;;;;5015143;28;20442;-80
2023/04/18 08:55:29;;;;;;;7.03;5.07;;;26.20;40.10;;;;;;5009586;28;20463;-80
2023/04/18 08:57:57;;;;;;;5.40;5.00;;;26.30;40.00;;;;;;5015118;28;21035;-79
2023/04/18 09:00:26;;;;;;;5.00;4.53;;;26.50;39.90;;;;;;5014234;28;20471;-79
2023/04/18 09:02:55;;;;;;;5.23;4.73;;;26.70;39.90;;;;;;5004791;28;20434;-79
2023/04/18 09:05:25;;;;;;;5.13;4.63;;;26.80;39.80;;;;;;5018805;28;20431;-80
2023/04/18 09:07:54;;;;;;;5.00;4.50;;;27.00;39.80;;;;;;5013001;28;20415;-80
2023/04/18 09:10:27;;;;;;;4.63;4.33;;;27.20;39.70;;;;;;5016013;28;20460;-79
2023/04/18 09:12:57;;;;;;;5.10;4.70;;;27.30;39.60;;;;;;5016457;28;20451;-78
2023/04/18 09:15:27;;;;;;;5.27;4.77;;;27.50;39.60;;;;;;5018883;28;20461;-79
2023/04/18 09:18:00;;;;;;;5.57;5.00;;;27.70;39.50;;;;;;5006103;28;20917;-81
2023/04/18 09:20:36;;;;;;;4.67;3.57;;;27.80;39.40;;;;;;5017775;28;20497;-77
2023/04/18 09:23:09;;;;;;;4.50;4.10;;;27.80;37.00;;;;;;5008144;28;20447;-77
2023/04/18 09:25:43;;;;;;;4.30;3.90;;;27.70;36.40;;;;;;5014241;28;20448;-77
2023/04/18 09:28:23;;;;;;;5.50;3.90;;;27.70;36.30;;;;;;5012568;28;20444;-77
2023/04/18 09:30:51;;;;;;;4.60;4.20;;;27.70;36.20;;;;;;5014088;28;20850;-78
2023/04/18 09:33:26;;;;;;;5.07;4.13;;;27.70;36.10;;;;;;5014160;28;20452;-77
2023/04/18 09:35:55;;;;;;;3.80;3.50;;;27.70;36.10;;;;;;5013785;28;20524;-78
2023/04/18 09:38:38;;;;;;;4.40;4.00;;;27.70;36.20;;;;;;5008273;28;20451;-77
2023/04/18 09:41:09;;;;;;;4.70;4.23;;;27.70;36.20;;;;;;5009467;28;20549;-77
2023/04/18 09:43:39;;;;;;;7.93;4.00;;;27.70;36.30;;;;;;5014355;28;20449;-77
2023/04/18 09:46:07;;;;;;;4.77;4.33;;;27.70;36.20;;;;;;5004704;28;20461;-78
2023/04/18 09:48:35;;;;;;;6.20;4.57;;;27.70;36.10;;;;;;5011935;28;20423;-78
2023/04/18 09:51:05;;;;;;;6.73;4.37;;;27.80;36.10;;;;;;5009618;28;20933;-77
2023/04/18 09:53:34;;;;;;;5.13;4.37;;;27.70;35.90;;;;;;5012910;28;20423;-77
2023/04/18 09:56:02;;;;;;;5.20;4.57;;;27.80;36.20;;;;;;5012821;28;20442;-78
2023/04/18 09:58:30;;;;;;;4.60;4.30;;;27.80;36.20;;;;;;5014822;28;20474;-80
2023/04/18 10:01:00;;;;;;;7.10;4.30;;;27.80;36.30;;;;;;5011065;28;20464;-79
2023/04/18 10:03:33;;;;;;;5.17;4.67;;;27.90;36.40;;;;;;5014045;28;20431;-77
2023/04/18 10:06:01;;;;;;;5.93;4.60;;;27.90;36.20;;;;;;5011910;28;20456;-77
2023/04/18 10:08:29;;;;;;;5.60;4.50;;;28.00;36.50;;;;;;5013628;28;20440;-78
2023/04/18 10:10:57;;;;;;;5.63;5.07;;;28.00;36.30;;;;;;5007828;28;20443;-77
2023/04/18 10:13:26;;;;;;;4.80;4.23;;;28.10;36.30;;;;;;5013251;28;20527;-77
2023/04/18 10:15:54;;;;;;;10.40;4.70;;;28.10;36.10;;;;;;5012746;28;20527;-77
2023/04/18 10:18:24;;;;;;;4.77;4.37;;;28.20;36.20;;;;;;5013072;28;20472;-78
2023/04/18 10:20:59;;;;;;;4.70;4.27;;;28.30;36.10;;;;;;5012851;28;20459;-77
2023/04/18 10:23:35;;;;;;;4.20;3.90;;;28.40;36.00;;;;;;5013387;28;20430;-77
2023/04/18 10:26:03;;;;;;;3.93;3.60;;;28.50;35.90;;;;;;5004907;28;20483;-77
2023/04/18 10:28:49;;;;;;;4.50;4.10;;;28.60;35.60;;;;;;5013365;28;20448;-77
2023/04/18 10:31:17;;;;;;;4.13;3.90;;;28.70;35.60;;;;;;5001559;28;20996;-77
2023/04/18 10:33:48;;;;;;;4.20;3.90;;;28.70;35.50;;;;;;5003472;28;20457;-77
2023/04/18 10:36:31;;;;;;;3.83;3.53;;;28.70;35.40;;;;;;5010612;28;20412;-77
2023/04/18 10:39:01;;;;;;;3.73;3.43;;;28.60;35.40;;;;;;5008469;28;20480;-77
2023/04/18 10:41:30;;;;;;;4.77;4.37;;;28.70;35.70;;;;;;5012990;28;20447;-77
2023/04/18 10:44:11;;;;;;;4.47;3.93;;;28.70;35.40;;;;;;5008729;28;20448;-77
2023/04/18 10:46:41;;;;;;;4.00;3.70;;;28.80;35.60;;;;;;5012186;28;20538;-77
2023/04/18 10:49:14;;;;;;;4.00;3.70;;;28.80;35.30;;;;;;5007038;28;20456;-77
2023/04/18 10:51:43;;;;;;;6.30;3.43;;;28.90;35.10;;;;;;5004808;28;20444;-78
2023/04/18 10:54:12;;;;;;;3.83;3.63;;;28.90;35.30;;;;;;5008785;28;20539;-77
2023/04/18 10:56:41;;;;;;;4.00;3.63;;;29.00;35.10;;;;;;5011065;28;20427;-77
2023/04/18 10:59:09;;;;;;;4.37;3.97;;;29.10;35.00;;;;;;5010491;28;20435;-77
2023/04/18 11:01:37;;;;;;;3.83;3.53;;;29.20;35.00;;;;;;5010064;28;20431;-77
2023/04/18 11:04:11;;;;;;;4.00;3.70;;;29.30;34.80;;;;;;5010100;28;20511;-79
2023/04/18 11:06:51;;;;;;;3.47;3.20;;;29.50;34.60;;;;;;5010600;28;20542;-77
2023/04/18 11:09:20;;;;;;;5.10;3.20;;;29.60;34.50;;;;;;5009805;28;20472;-78
2023/04/18 11:11:49;;;;;;;3.77;3.57;;;29.80;34.50;;;;;;5010576;28;20434;-78
2023/04/18 11:14:17;;;;;;;3.93;3.60;;;30.00;34.00;;;;;;5012940;28;20425;-77
2023/04/18 11:16:45;;;;;;;3.40;3.20;;;30.80;33.40;;;;;;5005520;28;20437;-78
2023/04/18 11:19:20;;;;;;;3.33;3.03;;;31.80;32.00;;;;;;5012534;28;20483;-77
2023/04/18 11:21:50;;;;;;;3.93;3.10;;;31.70;31.50;;;;;;5010281;28;20454;-77
2023/04/18 11:24:24;;;;;;;7.10;3.27;;;32.20;30.40;;;;;;5000806;28;20475;-77
2023/04/18 11:26:54;;;;;;;8.83;3.80;;;32.10;30.40;;;;;;4999455;28;20453;-77
2023/04/18 11:29:22;;;;;;;19.33;3.97;;;32.10;31.20;;;;;;5012100;28;20455;-77
2023/04/18 11:31:51;;;;;;;9.90;3.43;;;33.00;30.80;;;;;;5011139;28;20531;-78
2023/04/18 11:34:28;;;;;;;17.47;3.33;;;34.40;29.10;;;;;;5006731;28;20437;-78
2023/04/18 11:36:57;;;;;;;6.43;2.67;;;35.40;27.60;;;;;;5011832;28;20847;-78
2023/04/18 11:39:25;;;;;;;17.43;3.37;;;36.00;27.60;;;;;;5012045;28;20502;-78
2023/04/18 11:41:55;;;;;;;11.10;2.67;;;36.30;27.20;;;;;;5011609;28;20446;-79
2023/04/18 11:44:23;;;;;;;8.60;3.10;;;36.90;26.20;;;;;;5002000;28;20448;-77
2023/04/18 11:46:51;;;;;;;9.70;3.03;;;35.90;26.70;;;;;;5010938;28;20449;-78
2023/04/18 11:49:26;;;;;;;4.27;2.80;;;36.10;26.30;;;;;;5006878;28;20451;-79
2023/04/18 11:51:54;;;;;;;6.93;2.70;;;34.80;27.10;;;;;;5008002;28;20442;-78
2023/04/18 11:54:42;;;;;;;8.63;2.93;;;33.70;28.10;;;;;;5011172;28;20463;-77
2023/04/18 11:57:20;;;;;;;11.50;3.27;;;32.60;29.30;;;;;;5005095;28;20483;-78
2023/04/18 11:59:50;;;;;;;4.13;3.10;;;32.20;29.90;;;;;;5003715;28;20473;-77
2023/04/18 12:02:18;;;;;;;6.90;3.20;;;31.70;30.30;;;;;;5010498;28;20460;-78
2023/04/18 12:04:53;;;;;;;7.13;3.27;;;31.10;31.20;;;;;;5011796;28;20475;-77
2023/04/18 12:07:34;;;;;;;14.47;3.33;;;30.70;31.80;;;;;;5003786;28;20480;-77
2023/04/18 12:10:04;;;;;;;12.10;3.23;;;30.60;32.50;;;;;;5009581;28;20495;-76
2023/04/18 12:12:33;;;;;;;7.17;3.20;;;31.80;32.40;;;;;;5001480;28;20468;-76
2023/04/18 12:15:01;;;;;;;9.57;3.57;;;32.50;30.20;;;;;;5009724;28;20436;-76
2023/04/18 12:17:30;;;;;;;3.97;3.27;;;32.10;30.30;;;;;;5000366;28;20452;-76
2023/04/18 12:20:02;;;;;;;7.70;3.03;;;32.00;31.30;;;;;;5010382;28;20476;-76
2023/04/18 12:22:41;;;;;;;8.57;3.13;;;31.60;30.70;;;;;;5006713;28;20459;-76
2023/04/18 12:25:25;;;;;;;7.13;2.77;;;31.70;32.70;;;;;;5009361;28;20430;-78
2023/04/18 12:27:56;;;;;;;5.30;3.03;;;33.80;30.10;;;;;;5013755;28;20490;-77
2023/04/18 12:30:27;;;;;;;7.30;2.80;;;35.50;27.60;;;;;;5006782;28;20465;-76
2023/04/18 12:32:57;;;;;;;8.67;2.73;;;35.60;27.70;;;;;;5015044;28;20475;-77
2023/04/18 12:35:25;;;;;;;9.90;2.90;;;35.20;27.10;;;;;;5014890;28;20448;-77
2023/04/18 12:37:54;;;;;;;5.87;2.70;;;34.70;27.70;;;;;;5014977;28;20455;-78
2023/04/18 12:40:25;;;;;;;7.73;2.53;;;33.80;28.50;;;;;;5015865;28;20472;-77
2023/04/18 12:42:53;;;;;;;8.93;2.80;;;33.90;28.30;;;;;;5008856;28;20448;-78
2023/04/18 12:45:21;;;;;;;10.93;3.10;;;33.10;29.00;;;;;;5014798;28;20444;-78
2023/04/18 12:47:50;;;;;;;12.03;3.10;;;32.60;29.40;;;;;;5014343;28;20444;-78
2023/04/18 12:50:19;;;;;;;5.93;3.07;;;32.10;30.00;;;;;;5014865;28;20463;-78
2023/04/18 12:52:48;;;;;;;6.67;3.53;;;31.70;31.00;;;;;;5007785;28;20980;-78
2023/04/18 12:55:15;;;;;;;3.33;3.00;;;31.10;31.10;;;;;;5013470;28;20463;-78